createdAt,value
2022-11-15T00:01:19.001Z,5.70
2022-11-15T00:03:46.919Z,5.80
2022-11-15T00:06:14.464Z,5.90
2022-11-15T00:08:41.307Z,6.00
2022-11-15T00:11:12.723Z,6.10
2022-11-15T00:13:41.281Z,6.10
2022-11-15T00:16:10.214Z,6.00
2022-11-15T00:18:37.979Z,6.00
2022-11-15T00:21:11.738Z,6.00
2022-11-15T00:23:38.878Z,6.10
2022-11-15T00:26:06.559Z,6.30
2022-11-15T00:28:33.826Z,6.50
2022-11-15T00:31:14.850Z,6.60
2022-11-15T00:33:46.126Z,6.70
2022-11-15T00:36:13.491Z,6.80
2022-11-15T00:38:41.658Z,7.00
2022-11-15T00:41:10.052Z,7.00
2022-11-15T00:43:37.761Z,7.10
2022-11-15T00:46:05.037Z,7.10
2022-11-15T00:48:32.377Z,7.20
2022-11-15T00:50:59.430Z,7.20
2022-11-15T00:53:26.383Z,7.30
2022-11-15T00:55:53.758Z,7.30
2022-11-15T00:58:20.951Z,7.30
2022-11-15T01:00:47.928Z,7.40
2022-11-15T01:03:14.867Z,7.30
2022-11-15T01:05:41.745Z,7.30
2022-11-15T01:08:15.632Z,7.20
2022-11-15T01:10:43.177Z,7.20
2022-11-15T01:13:10.083Z,7.10
2022-11-15T01:15:41.825Z,7.00
2022-11-15T01:18:09.006Z,6.90
2022-11-15T01:20:40.515Z,6.90
2022-11-15T01:23:07.403Z,6.80
2022-11-15T01:25:34.971Z,6.80
2022-11-15T01:28:01.824Z,6.70
2022-11-15T01:30:28.708Z,6.60
2022-11-15T01:32:55.591Z,6.50
2022-11-15T01:35:22.525Z,6.40
2022-11-15T01:37:49.413Z,6.30
2022-11-15T01:40:16.504Z,6.30
2022-11-15T01:42:43.349Z,6.40
2022-11-15T01:45:19.340Z,6.40
2022-11-15T01:47:54.928Z,6.40
2022-11-15T01:50:33.584Z,6.50
2022-11-15T01:53:00.684Z,6.40
2022-11-15T01:55:29.878Z,6.50
2022-11-15T01:58:05.148Z,6.50
2022-11-15T02:00:33.148Z,6.50
2022-11-15T02:03:00.532Z,6.60
2022-11-15T02:05:27.464Z,6.50
2022-11-15T02:07:55.431Z,6.50
2022-11-15T02:10:25.836Z,6.50
2022-11-15T02:12:55.744Z,6.40
2022-11-15T02:15:32.704Z,6.40
2022-11-15T02:18:28.900Z,6.30
2022-11-15T02:21:34.319Z,6.30
2022-11-15T02:24:28.156Z,6.30
2022-11-15T02:28:00.357Z,6.30
2022-11-15T02:30:53.597Z,6.30
2022-11-15T02:33:57.321Z,6.20
2022-11-15T02:36:50.077Z,6.20
2022-11-15T02:39:42.619Z,6.20
2022-11-15T02:42:41.577Z,6.20
2022-11-15T02:45:22.929Z,6.20
2022-11-15T02:47:57.615Z,6.20
2022-11-15T02:50:31.060Z,6.10
2022-11-15T02:52:57.983Z,6.00
2022-11-15T02:55:36.342Z,6.00
2022-11-15T02:58:32.358Z,6.00
2022-11-15T03:01:29.162Z,5.90
2022-11-15T03:04:26.929Z,5.90
2022-11-15T03:07:34.218Z,5.90
2022-11-15T03:10:25.065Z,5.90
2022-11-15T03:13:14.575Z,6.10
2022-11-15T03:16:03.714Z,6.20
2022-11-15T03:18:41.648Z,6.40
2022-11-15T03:21:13.407Z,6.40
2022-11-15T03:23:42.469Z,6.40
2022-11-15T03:26:15.614Z,6.40
2022-11-15T03:29:28.952Z,6.40
2022-11-15T03:32:07.189Z,6.40
2022-11-15T03:34:57.099Z,6.40
2022-11-15T03:37:38.127Z,6.20
2022-11-15T03:40:06.842Z,6.10
2022-11-15T03:42:49.582Z,6.00
2022-11-15T03:45:40.372Z,5.90
2022-11-15T03:48:19.990Z,5.80
2022-11-15T03:50:48.322Z,5.60
2022-11-15T03:53:15.701Z,5.50
2022-11-15T03:55:42.546Z,5.50
2022-11-15T03:58:09.550Z,5.50
2022-11-15T04:00:36.534Z,5.60
2022-11-15T04:03:03.573Z,5.80
2022-11-15T04:05:30.441Z,5.90
2022-11-15T04:07:57.302Z,5.90
2022-11-15T04:10:24.519Z,5.90
2022-11-15T04:12:51.431Z,6.00
2022-11-15T04:15:23.207Z,6.00
2022-11-15T04:17:55.331Z,6.00
2022-11-15T04:21:00.552Z,6.00
2022-11-15T04:23:46.041Z,6.00
2022-11-15T04:26:20.308Z,6.00
2022-11-15T04:29:06.007Z,6.10
2022-11-15T04:31:32.899Z,6.00
2022-11-15T04:34:00.234Z,6.00
2022-11-15T04:36:45.961Z,6.10
2022-11-15T04:39:12.801Z,6.00
2022-11-15T04:41:39.667Z,6.00
2022-11-15T04:44:06.495Z,6.00
2022-11-15T04:46:33.543Z,5.90
2022-11-15T04:49:00.455Z,5.90
2022-11-15T04:51:27.439Z,5.70
2022-11-15T04:53:54.304Z,5.50
2022-11-15T04:56:21.184Z,5.40
2022-11-15T04:58:50.831Z,5.40
2022-11-15T05:01:18.624Z,5.40
2022-11-15T05:04:04.928Z,5.20
2022-11-15T05:06:32.384Z,5.10
2022-11-15T05:08:59.301Z,5.00
2022-11-15T05:11:27.695Z,4.90
2022-11-15T05:13:55.460Z,4.90
2022-11-15T05:16:22.487Z,4.90
2022-11-15T05:18:54.372Z,4.80
2022-11-15T05:21:22.289Z,4.80
2022-11-15T05:23:49.177Z,4.80
2022-11-15T05:26:19.168Z,4.70
2022-11-15T05:28:46.368Z,4.50
2022-11-15T05:31:17.327Z,4.40
2022-11-15T05:33:45.415Z,4.30
2022-11-15T05:36:47.595Z,4.20
2022-11-15T05:39:14.509Z,4.00
2022-11-15T05:42:05.547Z,4.00
2022-11-15T05:44:34.696Z,3.90
2022-11-15T05:47:04.045Z,3.80
2022-11-15T05:49:38.605Z,3.80
2022-11-15T05:52:12.274Z,4.00
2022-11-15T05:54:40.446Z,4.10
2022-11-15T05:57:08.115Z,4.00
2022-11-15T05:59:36.648Z,4.00
2022-11-15T06:02:03.771Z,4.00
2022-11-15T06:04:30.648Z,4.00
2022-11-15T06:07:00.200Z,4.10
2022-11-15T06:09:27.068Z,4.20
2022-11-15T06:11:53.942Z,4.40
2022-11-15T06:14:21.166Z,4.60
2022-11-15T06:16:48.142Z,4.80
2022-11-15T06:19:14.997Z,4.90
2022-11-15T06:21:42.001Z,5.00
2022-11-15T06:24:09.115Z,5.10
2022-11-15T06:26:36.971Z,5.10
2022-11-15T06:29:05.911Z,5.10
2022-11-15T06:31:34.414Z,5.20
2022-11-15T06:34:01.267Z,5.20
2022-11-15T06:36:28.133Z,5.20
2022-11-15T06:38:54.981Z,5.20
2022-11-15T06:41:22.143Z,5.10
2022-11-15T06:43:49.030Z,5.10
2022-11-15T06:46:15.902Z,5.10
2022-11-15T06:48:42.766Z,5.10
2022-11-15T06:51:09.703Z,5.30
2022-11-15T06:53:37.341Z,5.60
2022-11-15T06:56:08.306Z,5.70
2022-11-15T06:58:35.878Z,6.00
2022-11-15T07:01:11.629Z,6.20
2022-11-15T07:03:43.855Z,6.50
2022-11-15T07:06:11.435Z,6.80
2022-11-15T07:08:38.968Z,7.10
2022-11-15T07:11:08.655Z,7.40
2022-11-15T07:13:37.953Z,7.70
2022-11-15T07:16:09.743Z,8.00
2022-11-15T07:18:40.532Z,8.20
2022-11-15T07:21:11.752Z,8.50
2022-11-15T07:23:40.398Z,8.70
2022-11-15T07:26:09.231Z,9.10
2022-11-15T07:28:36.932Z,9.50
2022-11-15T07:31:07.572Z,9.80
2022-11-15T07:33:36.396Z,10.10
2022-11-15T07:36:07.167Z,10.20
2022-11-15T07:38:42.177Z,10.30
2022-11-15T07:41:10.144Z,10.60
2022-11-15T07:43:37.110Z,10.80
2022-11-15T07:46:10.285Z,11.10
2022-11-15T07:48:45.316Z,11.20
2022-11-15T07:51:15.076Z,11.20
2022-11-15T07:53:44.520Z,11.20
2022-11-15T07:56:12.921Z,11.30
2022-11-15T07:58:40.109Z,11.60
2022-11-15T08:01:11.102Z,11.80
2022-11-15T08:03:38.646Z,11.90
2022-11-15T08:06:06.416Z,11.90
2022-11-15T08:08:33.280Z,12.20
2022-11-15T08:11:01.481Z,12.20
2022-11-15T08:13:28.984Z,12.40
2022-11-15T08:16:06.142Z,12.80
2022-11-15T08:18:33.297Z,13.30
2022-11-15T08:21:02.520Z,13.80
2022-11-15T08:23:30.010Z,14.30
2022-11-15T08:26:03.581Z,14.70
2022-11-15T08:28:32.693Z,14.70
2022-11-15T08:30:59.581Z,15.10
2022-11-15T08:33:26.609Z,15.60
2022-11-15T08:35:56.621Z,16.10
2022-11-15T08:38:23.606Z,16.50
2022-11-15T08:40:59.882Z,16.70
2022-11-15T08:43:26.760Z,17.10
2022-11-15T08:45:57.937Z,17.30
2022-11-15T08:48:24.807Z,17.10
2022-11-15T08:50:57.176Z,17.10
2022-11-15T08:53:24.447Z,17.70
2022-11-15T08:55:51.298Z,18.20
2022-11-15T08:58:18.174Z,18.50
2022-11-15T09:03:53.611Z,19.10
2022-11-15T09:06:20.451Z,18.90
2022-11-15T09:08:48.380Z,18.80
2022-11-15T09:11:17.386Z,19.00
2022-11-15T09:13:44.321Z,19.10
2022-11-15T09:16:12.870Z,19.50
2022-11-15T09:18:39.871Z,19.80
2022-11-15T09:21:06.763Z,20.00
2022-11-15T09:23:33.847Z,20.20
2022-11-15T09:26:05.947Z,20.70
2022-11-15T09:28:34.827Z,21.10
2022-11-15T09:31:06.797Z,20.90
2022-11-15T09:33:34.085Z,20.90
2022-11-15T09:36:08.881Z,20.80
2022-11-15T09:38:36.799Z,20.60
2022-11-15T09:41:55.720Z,20.50
2022-11-15T09:45:11.539Z,19.80
2022-11-15T09:48:09.128Z,20.00
2022-11-15T09:51:02.128Z,20.10
2022-11-15T09:56:49.130Z,20.80
2022-11-15T09:59:56.624Z,21.10
2022-11-15T10:03:12.152Z,21.20
2022-11-15T10:05:55.368Z,21.70
2022-11-15T10:09:19.959Z,21.70
2022-11-15T10:11:50.603Z,21.80
2022-11-15T10:14:25.151Z,21.90
2022-11-15T10:17:31.172Z,22.10
2022-11-15T10:20:22.370Z,22.40
2022-11-15T10:23:08.204Z,22.50
2022-11-15T10:25:36.023Z,22.80
2022-11-15T10:28:16.644Z,23.30
2022-11-15T10:30:50.291Z,23.60
2022-11-15T10:33:39.172Z,23.30
2022-11-15T10:36:23.005Z,22.70
2022-11-15T10:38:50.084Z,22.70
2022-11-15T10:41:28.764Z,22.40
2022-11-15T10:44:19.952Z,22.70
2022-11-15T10:46:57.458Z,22.60
2022-11-15T10:49:31.552Z,22.00
2022-11-15T10:52:20.811Z,22.70
2022-11-15T10:55:18.936Z,23.50
2022-11-15T10:58:03.373Z,24.50
2022-11-15T11:00:42.677Z,25.60
2022-11-15T11:03:39.120Z,25.90
2022-11-15T11:06:19.198Z,26.30
2022-11-15T11:09:06.749Z,25.90
2022-11-15T11:11:52.923Z,25.70
2022-11-15T11:14:34.842Z,25.40
2022-11-15T11:17:16.500Z,25.50
2022-11-15T11:20:20.540Z,25.50
2022-11-15T11:24:04.261Z,25.00
2022-11-15T11:26:56.952Z,25.10
2022-11-15T11:30:01.274Z,24.90
2022-11-15T11:33:19.105Z,24.90
2022-11-15T11:36:32.498Z,24.50
2022-11-15T11:40:13.736Z,24.30
2022-11-15T11:43:34.563Z,24.10
2022-11-15T11:46:32.251Z,24.00
2022-11-15T11:49:46.801Z,23.90
2022-11-15T11:52:34.022Z,23.50
2022-11-15T11:55:45.497Z,23.40
2022-11-15T11:58:39.898Z,24.10
2022-11-15T12:01:32.368Z,24.30
2022-11-15T12:04:27.970Z,24.30
2022-11-15T12:07:21.034Z,23.80
2022-11-15T12:10:05.692Z,23.80
2022-11-15T12:13:15.571Z,23.90
2022-11-15T12:16:04.963Z,23.90
2022-11-15T12:18:36.306Z,23.80
2022-11-15T12:21:28.666Z,23.50
2022-11-15T12:24:12.430Z,23.30
2022-11-15T12:26:56.260Z,23.20
2022-11-15T12:29:53.199Z,23.20
2022-11-15T12:32:35.699Z,23.20
2022-11-15T12:35:21.926Z,23.00
2022-11-15T12:37:56.517Z,23.00
2022-11-15T12:41:12.490Z,23.20
2022-11-15T12:43:44.268Z,23.30
2022-11-15T12:46:40.333Z,23.70
2022-11-15T12:49:28.258Z,23.20
2022-11-15T12:51:57.999Z,23.00
2022-11-15T12:54:24.749Z,23.40
2022-11-15T12:57:09.903Z,23.80
2022-11-15T13:00:05.027Z,23.80
2022-11-15T13:02:46.297Z,22.40
2022-11-15T13:05:23.441Z,21.10
2022-11-15T13:07:50.571Z,19.90
2022-11-15T13:10:17.295Z,18.80
2022-11-15T13:12:46.835Z,18.50
2022-11-15T13:15:13.581Z,19.20
2022-11-15T13:18:30.341Z,20.50
2022-11-15T13:21:02.197Z,21.00
2022-11-15T13:23:30.126Z,21.60
2022-11-15T13:26:18.836Z,22.10
2022-11-15T13:28:55.590Z,22.00
2022-11-15T13:31:41.321Z,22.00
2022-11-15T13:34:51.650Z,22.10
2022-11-15T13:37:37.307Z,22.10
2022-11-15T13:40:35.238Z,22.40
2022-11-15T13:43:29.153Z,22.80
2022-11-15T13:46:32.069Z,22.60
2022-11-15T13:49:09.184Z,22.60
2022-11-15T13:51:55.705Z,22.50
2022-11-15T13:54:39.751Z,21.80
2022-11-15T13:57:19.712Z,21.30
2022-11-15T14:00:01.955Z,20.80
2022-11-15T14:02:35.000Z,20.60
2022-11-15T14:05:31.317Z,20.40
2022-11-15T14:08:13.065Z,19.30
2022-11-15T14:10:41.145Z,17.80
2022-11-15T14:13:31.477Z,17.00
2022-11-15T14:16:21.486Z,17.00
2022-11-15T14:18:54.152Z,17.00
2022-11-15T14:21:21.673Z,16.80
2022-11-15T14:23:49.884Z,16.40
2022-11-15T14:26:35.619Z,16.20
2022-11-15T14:29:27.980Z,16.00
2022-11-15T14:32:15.235Z,16.00
2022-11-15T14:34:42.705Z,16.30
2022-11-15T14:37:33.941Z,16.80
2022-11-15T14:40:06.575Z,17.40
2022-11-15T14:42:33.807Z,17.70
2022-11-15T14:45:00.729Z,17.70
2022-11-15T14:47:27.574Z,17.70
2022-11-15T14:49:54.433Z,17.10
2022-11-15T14:52:32.999Z,15.90
2022-11-15T14:55:03.104Z,14.80
2022-11-15T14:57:31.254Z,13.90
2022-11-15T14:59:58.144Z,13.20
2022-11-15T15:02:28.243Z,12.70
2022-11-15T15:04:55.574Z,12.40
2022-11-15T15:07:23.275Z,12.10
2022-11-15T15:09:50.182Z,11.90
2022-11-15T15:12:24.353Z,11.60
2022-11-15T15:14:51.871Z,11.20
2022-11-15T15:17:18.902Z,11.00
2022-11-15T15:19:46.089Z,10.70
2022-11-15T15:22:22.668Z,10.40
2022-11-15T15:24:49.529Z,10.20
2022-11-15T15:27:16.453Z,10.10
2022-11-15T15:29:43.339Z,10.10
2022-11-15T15:32:11.843Z,10.00
2022-11-15T15:34:38.703Z,9.70
2022-11-15T15:37:26.971Z,9.50
2022-11-15T15:39:57.410Z,9.30
2022-11-15T15:42:24.741Z,9.10
2022-11-15T15:44:52.396Z,8.90
2022-11-15T15:47:24.515Z,8.70
2022-11-15T15:49:51.980Z,8.70
2022-11-15T15:52:20.171Z,8.70
2022-11-15T15:54:47.024Z,8.50
2022-11-15T15:57:15.552Z,8.40
2022-11-15T15:59:42.991Z,8.30
2022-11-15T16:02:18.658Z,8.20
2022-11-15T16:04:45.526Z,8.20
2022-11-15T16:07:24.437Z,8.20
2022-11-15T16:10:01.059Z,8.30
2022-11-15T16:12:35.803Z,8.40
2022-11-15T16:15:04.180Z,8.50
2022-11-15T16:17:47.805Z,8.60
2022-11-15T16:20:35.492Z,8.70
2022-11-15T16:23:09.049Z,8.70
2022-11-15T16:25:46.620Z,8.50
2022-11-15T16:28:27.781Z,8.30
2022-11-15T16:31:23.915Z,8.20
2022-11-15T16:33:50.963Z,8.20
2022-11-15T16:36:30.823Z,8.20
2022-11-15T16:38:59.627Z,8.20
2022-11-15T16:41:27.310Z,8.20
2022-11-15T16:43:54.319Z,8.30
2022-11-15T16:46:29.865Z,8.30
2022-11-15T16:48:57.333Z,8.30
2022-11-15T16:51:24.388Z,8.20
2022-11-15T16:53:51.433Z,8.10
2022-11-15T16:56:30.403Z,8.10
2022-11-15T16:59:00.716Z,8.10
2022-11-15T17:01:36.173Z,8.10
2022-11-15T17:04:12.803Z,8.10
2022-11-15T17:06:42.008Z,8.00
2022-11-15T17:09:20.240Z,7.80
2022-11-15T17:11:47.364Z,7.60
2022-11-15T17:14:14.429Z,7.50
2022-11-15T17:16:42.504Z,7.40
2022-11-15T17:19:20.935Z,7.30
2022-11-15T17:21:49.536Z,7.20
2022-11-15T17:24:17.317Z,7.20
2022-11-15T17:26:44.285Z,7.40
2022-11-15T17:29:11.350Z,7.60
2022-11-15T17:31:38.731Z,7.90
2022-11-15T17:34:07.593Z,8.20
2022-11-15T17:36:35.497Z,8.30
2022-11-15T17:39:04.700Z,8.40
2022-11-15T17:41:32.225Z,8.40
2022-11-15T17:44:01.782Z,8.30
2022-11-15T17:46:29.718Z,8.20
2022-11-15T17:48:57.937Z,8.30
2022-11-15T17:51:25.645Z,8.30
2022-11-15T17:53:53.192Z,8.40
2022-11-15T17:56:23.789Z,8.40
2022-11-15T17:58:58.266Z,8.50
2022-11-15T18:01:35.743Z,8.50
2022-11-15T18:04:09.970Z,8.60
2022-11-15T18:06:37.182Z,8.70
2022-11-15T18:09:07.172Z,8.80
2022-11-15T18:11:41.881Z,8.80
2022-11-15T18:14:15.190Z,8.80
2022-11-15T18:16:42.904Z,8.80
2022-11-15T18:19:13.595Z,8.80
2022-11-15T18:22:05.131Z,8.80
2022-11-15T18:24:36.522Z,8.80
2022-11-15T18:27:06.864Z,8.80
2022-11-15T18:29:37.831Z,8.80
2022-11-15T18:32:11.497Z,8.70
2022-11-15T18:34:38.938Z,8.70
2022-11-15T18:37:06.170Z,8.70
2022-11-15T18:39:33.135Z,8.70
2022-11-15T18:42:00.444Z,8.80
2022-11-15T18:44:32.628Z,8.70
2022-11-15T18:46:59.467Z,8.70
2022-11-15T18:49:26.685Z,8.70
2022-11-15T18:51:53.729Z,8.80
2022-11-15T18:54:20.582Z,8.80
2022-11-15T18:56:47.528Z,8.80
2022-11-15T18:59:16.057Z,8.80
2022-11-15T19:01:49.916Z,8.80
2022-11-15T19:04:20.291Z,8.90
2022-11-15T19:06:49.972Z,8.90
2022-11-15T19:09:19.455Z,8.90
2022-11-15T19:11:51.209Z,8.90
2022-11-15T19:14:23.717Z,8.90
2022-11-15T19:16:51.989Z,8.90
2022-11-15T19:19:25.458Z,8.80
2022-11-15T19:21:53.339Z,8.80
2022-11-15T19:24:20.910Z,8.80
2022-11-15T19:26:47.863Z,8.70
2022-11-15T19:29:15.537Z,8.70
2022-11-15T19:31:42.920Z,8.80
2022-11-15T19:34:10.548Z,8.80
2022-11-15T19:36:44.219Z,8.80
2022-11-15T19:39:14.952Z,8.70
2022-11-15T19:41:44.623Z,8.70
2022-11-15T19:44:13.483Z,8.60
2022-11-15T19:46:41.671Z,8.60
2022-11-15T19:49:10.895Z,8.50
2022-11-15T19:51:41.422Z,8.50
2022-11-15T19:54:09.671Z,8.40
2022-11-15T19:56:38.026Z,8.40
2022-11-15T19:59:05.672Z,8.30
2022-11-15T20:01:37.822Z,8.30
2022-11-15T20:04:06.660Z,8.30
2022-11-15T20:06:42.260Z,8.30
2022-11-15T20:09:15.106Z,8.30
2022-11-15T20:11:42.473Z,8.30
2022-11-15T20:14:11.501Z,8.30
2022-11-15T20:16:39.516Z,8.20
2022-11-15T20:19:08.398Z,8.30
2022-11-15T20:21:36.063Z,8.20
2022-11-15T20:24:03.884Z,8.20
2022-11-15T20:26:32.068Z,8.20
2022-11-15T20:29:01.930Z,8.20
2022-11-15T20:31:30.798Z,8.10
2022-11-15T20:33:58.421Z,8.10
2022-11-15T20:36:25.490Z,8.10
2022-11-15T20:38:59.242Z,8.10
2022-11-15T20:41:27.574Z,8.10
2022-11-15T20:43:54.999Z,8.10
2022-11-15T20:46:22.235Z,8.10
2022-11-15T20:48:49.069Z,8.10
2022-11-15T20:51:18.813Z,8.10
2022-11-15T20:53:47.719Z,8.20
2022-11-15T20:56:20.657Z,8.20
2022-11-15T20:58:50.284Z,8.20
2022-11-15T21:01:23.513Z,8.20
2022-11-15T21:03:54.105Z,8.10
2022-11-15T21:06:23.331Z,8.20
2022-11-15T21:09:13.782Z,8.20
2022-11-15T21:12:17.057Z,8.20
2022-11-15T21:14:45.007Z,8.10
2022-11-15T21:17:12.190Z,8.10
2022-11-15T21:19:39.084Z,8.00
2022-11-15T21:22:09.186Z,8.00
2022-11-15T21:24:36.045Z,7.90
2022-11-15T21:27:03.734Z,7.90
2022-11-15T21:29:39.935Z,7.80
2022-11-15T21:32:09.853Z,7.80
2022-11-15T21:34:37.499Z,7.70
2022-11-15T21:37:05.530Z,7.70
2022-11-15T21:39:32.512Z,7.60
2022-11-15T21:41:59.396Z,7.60
2022-11-15T21:44:26.314Z,7.60
2022-11-15T21:46:53.138Z,7.60
2022-11-15T21:49:20.802Z,7.50
2022-11-15T21:51:48.042Z,7.50
2022-11-15T21:54:15.786Z,7.50
2022-11-15T21:56:43.151Z,7.50
2022-11-15T21:59:10.367Z,7.50
2022-11-15T22:01:55.931Z,7.50
2022-11-15T22:04:23.941Z,7.50
2022-11-15T22:06:51.502Z,7.50
2022-11-15T22:09:18.443Z,7.40
2022-11-15T22:11:45.640Z,7.30
2022-11-15T22:14:12.572Z,7.30
2022-11-15T22:16:39.457Z,7.30
2022-11-15T22:19:06.351Z,7.30
2022-11-15T22:21:33.331Z,7.20
2022-11-15T22:24:00.310Z,7.10
2022-11-15T22:26:27.247Z,7.00
2022-11-15T22:28:54.184Z,7.00
2022-11-15T22:31:21.124Z,6.90
2022-11-15T22:33:48.112Z,6.90
2022-11-15T22:36:15.271Z,6.80
2022-11-15T22:38:42.245Z,6.70
2022-11-15T22:41:09.401Z,6.60
2022-11-15T22:43:36.831Z,6.50
2022-11-15T22:46:05.540Z,6.50
2022-11-15T22:48:37.883Z,6.30
2022-11-15T22:51:06.848Z,6.30
2022-11-15T22:53:34.123Z,6.30
2022-11-15T22:56:04.542Z,6.30
2022-11-15T22:58:33.896Z,6.20
2022-11-15T23:01:04.864Z,6.20
2022-11-15T23:03:33.982Z,6.20
2022-11-15T23:06:05.263Z,6.20
2022-11-15T23:08:33.298Z,6.30
2022-11-15T23:11:22.249Z,6.30
2022-11-15T23:13:52.457Z,6.30
2022-11-15T23:16:23.591Z,6.30
2022-11-15T23:19:00.313Z,6.30
2022-11-15T23:22:02.464Z,6.30
2022-11-15T23:24:32.662Z,6.20
2022-11-15T23:27:06.247Z,6.20
2022-11-15T23:29:59.970Z,6.20
2022-11-15T23:32:45.285Z,6.20
2022-11-15T23:35:12.410Z,6.10
2022-11-15T23:37:39.474Z,6.10
2022-11-15T23:40:08.057Z,6.10
2022-11-15T23:42:35.019Z,6.10
2022-11-15T23:45:01.905Z,6.00
2022-11-15T23:47:28.909Z,6.00
2022-11-15T23:49:55.803Z,6.10
2022-11-15T23:52:23.139Z,6.00
2022-11-15T23:54:50.105Z,6.00
2022-11-15T23:57:17.026Z,6.00
2022-11-15T23:59:43.987Z,5.90
